Time;durP1;ratioP1;P1;durP2;ratioP2;P2;SDS_P1;SDS_P2;PMS_P1;PMS_P2;Temp;Humidity;BMP_temperature;BMP_pressure;BME280_temperature;BME280_humidity;BME280_pressure;Samples;Min_cycle;Max_cycle;Signal;HPM_P1;HPM_P2
2023/06/22 00:04:34;;;;;;;3.10;1.67;;;30.20;53.60;;;;;;10496457;28;20041;-31
2023/06/22 00:09:36;;;;;;;1.83;1.30;;;30.20;53.90;;;;;;10497864;28;20473;-31
2023/06/22 00:14:39;;;;;;;3.15;1.92;;;30.10;53.60;;;;;;10510287;28;20075;-32
2023/06/22 00:19:41;;;;;;;3.13;1.70;;;30.00;53.70;;;;;;10499438;28;20044;-31
2023/06/22 00:24:43;;;;;;;2.63;1.60;;;30.00;53.60;;;;;;10499346;28;20482;-30
2023/06/22 00:29:46;;;;;;;2.42;1.80;;;29.90;53.90;;;;;;10496832;28;20045;-32
2023/06/22 00:34:48;;;;;;;2.17;1.60;;;29.80;54.00;;;;;;10495616;28;20045;-32
2023/06/22 00:39:50;;;;;;;2.42;1.83;;;29.80;54.10;;;;;;10495164;28;20412;-31
2023/06/22 00:44:54;;;;;;;2.33;1.75;;;29.80;54.00;;;;;;10503864;28;20196;-34
2023/06/22 00:49:55;;;;;;;3.83;1.67;;;29.70;54.10;;;;;;10493453;28;20437;-31
2023/06/22 00:54:57;;;;;;;3.55;2.05;;;29.60;54.10;;;;;;10494609;28;20473;-33
2023/06/22 01:00:01;;;;;;;3.17;2.00;;;29.60;54.10;;;;;;10494791;28;20167;-38
2023/06/22 01:05:04;;;;;;;3.22;2.00;;;29.70;54.00;;;;;;10490240;28;20123;-37
2023/06/22 01:10:12;;;;;;;2.90;1.95;;;29.60;54.10;;;;;;10492058;28;20044;-37
2023/06/22 01:15:23;;;;;;;3.47;1.67;;;29.50;54.30;;;;;;10484769;28;20106;-32
2023/06/22 01:20:26;;;;;;;3.03;2.05;;;29.50;54.30;;;;;;10491684;28;20469;-33
2023/06/22 01:25:34;;;;;;;2.70;2.15;;;29.50;54.20;;;;;;10489358;28;20140;-31
2023/06/22 01:30:39;;;;;;;2.70;1.88;;;29.30;54.30;;;;;;10492821;28;20086;-31
2023/06/22 01:35:44;;;;;;;1.88;1.50;;;29.30;54.90;;;;;;10491237;28;20050;-31
2023/06/22 01:40:48;;;;;;;3.88;1.80;;;29.30;54.20;;;;;;10489900;28;20088;-31
2023/06/22 01:45:52;;;;;;;3.92;1.80;;;29.30;54.20;;;;;;10491358;28;20476;-35
2023/06/22 01:50:54;;;;;;;2.90;1.80;;;29.30;54.10;;;;;;10488484;28;20075;-35
2023/06/22 01:55:57;;;;;;;3.63;1.70;;;29.20;54.30;;;;;;10490963;28;20139;-31
2023/06/22 02:01:10;;;;;;;3.65;1.83;;;29.20;54.20;;;;;;10492103;28;20079;-31
2023/06/22 02:06:17;;;;;;;2.15;1.80;;;29.10;54.50;;;;;;10491856;28;20519;-32
2023/06/22 02:11:21;;;;;;;3.50;2.15;;;29.00;54.50;;;;;;10492314;28;20139;-31
2023/06/22 02:16:24;;;;;;;3.90;2.20;;;29.10;54.40;;;;;;10492478;28;20142;-31
2023/06/22 02:21:26;;;;;;;6.43;2.28;;;29.10;54.30;;;;;;10490697;28;20090;-35
2023/06/22 02:26:28;;;;;;;3.72;2.03;;;29.00;54.40;;;;;;10491956;28;20090;-32
2023/06/22 02:31:31;;;;;;;3.97;2.28;;;28.90;54.70;;;;;;10493304;28;20490;-35
2023/06/22 02:36:33;;;;;;;2.33;1.60;;;28.90;54.60;;;;;;10491096;28;20083;-32
2023/06/22 02:41:35;;;;;;;2.63;1.90;;;28.90;54.50;;;;;;10491322;28;20044;-35
2023/06/22 02:46:38;;;;;;;3.78;2.08;;;28.90;54.70;;;;;;10491864;28;20123;-32
2023/06/22 02:51:43;;;;;;;2.40;1.88;;;28.70;54.70;;;;;;10491497;28;20508;-32
2023/06/22 02:56:45;;;;;;;2.83;2.25;;;28.80;54.60;;;;;;10500539;28;20489;-32
2023/06/22 03:15:31;;;;;;;2.20;1.92;;;28.50;54.50;;;;;;10564846;27;20118;-33
2023/06/22 03:20:33;;;;;;;3.38;1.90;;;28.50;55.00;;;;;;10568154;28;20054;-31
2023/06/22 03:25:36;;;;;;;4.13;2.03;;;28.60;54.80;;;;;;10569338;28;20058;-30
2023/06/22 03:30:39;;;;;;;3.80;1.98;;;28.60;54.70;;;;;;10569396;28;20077;-31
2023/06/22 03:35:42;;;;;;;2.42;2.20;;;28.60;54.60;;;;;;10562923;28;20546;-36
2023/06/22 03:40:43;;;;;;;3.05;1.98;;;28.60;54.60;;;;;;10567880;28;20504;-31
2023/06/22 03:45:46;;;;;;;3.15;2.42;;;28.50;54.70;;;;;;10576933;28;20138;-31
2023/06/22 03:50:48;;;;;;;3.15;2.45;;;28.40;54.80;;;;;;10565880;28;20075;-30
2023/06/22 03:55:51;;;;;;;2.63;2.13;;;28.50;54.70;;;;;;10566553;28;20486;-32
2023/06/22 04:00:54;;;;;;;2.75;1.90;;;28.40;54.70;;;;;;10566491;28;20055;-37
2023/06/22 04:05:56;;;;;;;4.75;2.25;;;28.40;54.70;;;;;;10569010;28;20047;-31
2023/06/22 04:10:58;;;;;;;3.28;2.00;;;28.40;54.80;;;;;;10556665;28;20491;-31
2023/06/22 04:16:01;;;;;;;2.35;2.10;;;28.10;54.90;;;;;;10564758;28;20043;-31
2023/06/22 04:21:03;;;;;;;3.58;2.38;;;28.20;55.20;;;;;;10559241;28;20051;-31
2023/06/22 04:26:05;;;;;;;5.88;2.72;;;28.30;54.90;;;;;;10538312;28;20675;-33
2023/06/22 04:31:08;;;;;;;4.43;2.90;;;28.30;54.60;;;;;;10536016;28;20099;-31
2023/06/22 04:36:13;;;;;;;4.97;3.20;;;28.40;54.50;;;;;;10530613;28;20122;-35
2023/06/22 04:41:23;;;;;;;3.58;3.17;;;28.20;54.70;;;;;;10532036;28;20123;-33
2023/06/22 04:46:26;;;;;;;4.13;2.93;;;28.20;54.70;;;;;;10535851;28;20639;-32
2023/06/22 04:51:30;;;;;;;4.80;3.75;;;28.20;54.60;;;;;;10534659;28;20131;-30
2023/06/22 04:56:32;;;;;;;7.70;4.75;;;28.20;55.10;;;;;;10530843;28;20101;-31
2023/06/22 05:01:35;;;;;;;11.05;6.63;;;28.20;54.70;;;;;;10534892;28;20576;-34
2023/06/22 05:06:37;;;;;;;7.82;4.95;;;28.20;54.80;;;;;;10529947;28;20040;-32
2023/06/22 05:11:39;;;;;;;9.43;6.53;;;28.00;54.90;;;;;;10527816;28;20491;-30
2023/06/22 05:16:43;;;;;;;11.88;6.90;;;28.00;55.20;;;;;;10529991;28;20120;-28
2023/06/22 05:21:45;;;;;;;10.73;7.00;;;28.00;55.10;;;;;;10531845;28;20114;-31
2023/06/22 05:26:47;;;;;;;13.00;6.22;;;28.10;55.10;;;;;;10525238;28;20048;-34
2023/06/22 05:31:50;;;;;;;8.32;5.25;;;28.20;55.60;;;;;;10531571;28;20131;-32
2023/06/22 05:36:52;;;;;;;10.07;5.80;;;28.10;55.10;;;;;;10530952;28;20511;-30
2023/06/22 05:41:54;;;;;;;7.85;3.85;;;28.10;55.50;;;;;;10533908;28;20050;-31
2023/06/22 05:46:57;;;;;;;8.13;4.60;;;28.10;55.30;;;;;;10531090;28;20044;-31
2023/06/22 05:51:59;;;;;;;7.60;3.95;;;28.00;55.60;;;;;;10531758;28;20496;-32
2023/06/22 05:57:01;;;;;;;7.15;3.85;;;28.00;55.60;;;;;;10530619;28;20127;-32
2023/06/22 06:02:05;;;;;;;6.63;3.28;;;28.20;55.50;;;;;;10531584;28;20115;-31
2023/06/22 06:07:07;;;;;;;9.73;3.60;;;28.00;55.70;;;;;;10530589;28;20149;-38
2023/06/22 06:12:10;;;;;;;6.93;3.10;;;28.20;55.60;;;;;;10531659;28;20349;-32
2023/06/22 06:17:13;;;;;;;6.18;2.63;;;28.20;55.70;;;;;;10527079;28;20119;-32
2023/06/22 06:22:15;;;;;;;6.55;2.90;;;28.20;55.80;;;;;;10527351;28;20159;-36
2023/06/22 06:27:19;;;;;;;3.65;2.60;;;28.20;55.60;;;;;;10529561;28;20047;-30
2023/06/22 06:32:22;;;;;;;4.45;2.00;;;28.20;55.50;;;;;;10530025;28;20050;-33
2023/06/22 06:37:24;;;;;;;3.17;2.10;;;28.30;55.50;;;;;;10528349;28;20047;-34
2023/06/22 06:42:26;;;;;;;5.35;2.20;;;28.30;55.60;;;;;;10511730;28;20134;-37
2023/06/22 06:47:29;;;;;;;6.40;3.53;;;28.30;55.50;;;;;;10524710;28;20047;-37
2023/06/22 06:52:31;;;;;;;5.40;2.65;;;28.30;55.50;;;;;;10526022;28;20072;-38
2023/06/22 06:57:33;;;;;;;8.25;2.75;;;28.30;55.50;;;;;;10523236;28;20051;-34
2023/06/22 07:02:37;;;;;;;5.13;2.42;;;28.30;55.30;;;;;;10527036;28;20071;-36
2023/06/22 07:07:39;;;;;;;6.80;2.30;;;28.40;55.20;;;;;;10537408;28;20078;-38
2023/06/22 07:12:41;;;;;;;4.97;3.00;;;28.40;55.20;;;;;;10526992;28;20463;-37
2023/06/22 07:17:44;;;;;;;4.13;2.00;;;28.40;55.20;;;;;;10527035;28;20079;-37
2023/06/22 07:22:46;;;;;;;3.40;1.65;;;28.40;55.10;;;;;;10528856;28;20137;-34
2023/06/22 07:27:58;;;;;;;2.83;1.77;;;28.40;55.10;;;;;;10531756;28;20614;-30
2023/06/22 07:33:03;;;;;;;2.65;1.67;;;28.50;55.00;;;;;;10525229;28;20211;-35
2023/06/22 07:38:05;;;;;;;3.75;1.60;;;28.50;54.80;;;;;;10528230;28;20051;-34
2023/06/22 07:43:07;;;;;;;2.33;1.50;;;28.40;54.80;;;;;;10540152;28;20068;-34
2023/06/22 07:48:10;;;;;;;2.83;1.30;;;28.50;54.80;;;;;;10535706;28;20058;-31
2023/06/22 07:53:12;;;;;;;2.60;1.30;;;28.40;55.00;;;;;;10527585;28;20135;-30
2023/06/22 07:58:15;;;;;;;1.27;1.15;;;28.50;54.80;;;;;;10529741;28;20135;-33
2023/06/22 08:03:18;;;;;;;2.78;1.40;;;28.50;54.80;;;;;;10537894;28;20574;-30
2023/06/22 08:08:20;;;;;;;2.20;1.10;;;28.60;54.60;;;;;;10536834;28;20075;-31
2023/06/22 08:13:23;;;;;;;4.47;1.40;;;28.70;54.70;;;;;;10534877;28;20051;-37
2023/06/22 08:18:27;;;;;;;3.20;1.50;;;28.60;54.40;;;;;;10535982;28;20082;-32
2023/06/22 08:23:29;;;;;;;4.03;1.10;;;28.70;54.40;;;;;;10535514;28;20680;-33
2023/06/22 08:28:31;;;;;;;2.20;1.33;;;28.70;54.30;;;;;;10539589;28;20155;-30
2023/06/22 08:33:34;;;;;;;2.53;1.05;;;28.70;54.30;;;;;;10535273;28;20048;-30
2023/06/22 08:38:36;;;;;;;3.47;1.15;;;28.70;54.20;;;;;;10536018;28;20123;-30
2023/06/22 08:43:38;;;;;;;2.60;1.25;;;28.70;54.20;;;;;;10537376;28;20071;-32
2023/06/22 08:48:41;;;;;;;2.15;1.05;;;28.80;53.90;;;;;;10534826;28;20439;-32
2023/06/22 08:53:44;;;;;;;2.35;1.08;;;28.90;53.90;;;;;;10535423;28;20052;-33
2023/06/22 08:58:46;;;;;;;1.55;0.95;;;28.80;53.90;;;;;;10551690;28;20158;-38
2023/06/22 09:03:54;;;;;;;1.38;0.98;;;28.80;53.80;;;;;;10535043;28;20052;-35
2023/06/22 09:08:55;;;;;;;1.38;1.17;;;28.90;53.50;;;;;;10533768;28;20447;-34
2023/06/22 09:13:57;;;;;;;1.00;0.88;;;29.00;53.50;;;;;;10533740;28;20062;-33
2023/06/22 09:19:00;;;;;;;1.20;0.90;;;29.00;53.40;;;;;;10533229;28;20094;-32
2023/06/22 09:24:04;;;;;;;0.70;0.70;;;29.00;53.20;;;;;;10534883;28;20550;-33
2023/06/22 09:29:06;;;;;;;1.10;0.95;;;29.00;53.20;;;;;;10533934;28;20097;-32
2023/06/22 09:34:09;;;;;;;3.63;1.00;;;29.10;53.10;;;;;;10539306;28;20652;-32
2023/06/22 09:39:11;;;;;;;2.60;0.90;;;29.10;53.10;;;;;;10531659;28;20048;-31
2023/06/22 09:44:13;;;;;;;1.00;0.90;;;29.10;53.00;;;;;;10530358;28;20036;-32
2023/06/22 09:49:16;;;;;;;1.27;0.95;;;29.10;53.00;;;;;;10534566;28;20687;-32
2023/06/22 09:54:18;;;;;;;3.75;2.70;;;29.00;53.10;;;;;;10519487;28;20139;-33
2023/06/22 09:59:20;;;;;;;3.97;2.22;;;28.90;55.00;;;;;;10526332;28;20087;-32
2023/06/22 10:04:24;;;;;;;4.13;2.65;;;28.70;54.70;;;;;;10531614;28;20060;-35
2023/06/22 10:09:26;;;;;;;9.30;5.70;;;28.00;56.80;;;;;;10527679;28;20058;-32
2023/06/22 10:14:29;;;;;;;12.95;7.90;;;28.40;57.00;;;;;;10531298;28;20091;-31
2023/06/22 10:19:32;;;;;;;21.77;15.40;;;27.80;60.80;;;;;;10524888;28;20075;-36
2023/06/22 10:24:34;;;;;;;21.42;12.75;;;26.70;67.80;;;;;;10531101;28;20048;-36
2023/06/22 10:29:36;;;;;;;24.50;12.23;;;27.40;61.30;;;;;;10531004;28;20708;-32
2023/06/22 10:34:39;;;;;;;5.30;3.53;;;27.90;61.00;;;;;;10531090;28;20048;-31
2023/06/22 10:39:41;;;;;;;22.38;13.50;;;27.90;59.00;;;;;;10531349;28;20054;-34
2023/06/22 10:44:44;;;;;;;7.03;3.60;;;27.30;64.20;;;;;;10526879;28;20072;-32
2023/06/22 10:49:47;;;;;;;3.03;2.13;;;27.90;60.70;;;;;;10531566;28;20553;-32
2023/06/22 10:54:49;;;;;;;1.98;1.50;;;27.60;62.60;;;;;;10516511;28;20051;-31
2023/06/22 10:59:51;;;;;;;13.02;8.88;;;28.50;57.90;;;;;;10521004;28;20052;-32
2023/06/22 11:04:55;;;;;;;8.85;7.05;;;28.00;60.00;;;;;;10522398;28;20055;-31
2023/06/22 11:09:57;;;;;;;19.05;9.70;;;28.00;59.60;;;;;;10524484;28;20461;-34
2023/06/22 11:15:00;;;;;;;15.02;9.63;;;28.10;59.30;;;;;;10518944;28;20056;-31
2023/06/22 11:20:09;;;;;;;21.83;13.18;;;28.00;60.80;;;;;;10531266;28;20545;-33
2023/06/22 11:25:12;;;;;;;7.80;5.28;;;27.80;63.00;;;;;;10525774;28;20118;-30
2023/06/22 11:30:14;;;;;;;21.52;13.63;;;27.90;60.60;;;;;;10532173;28;20728;-30
2023/06/22 11:35:17;;;;;;;3.13;2.17;;;27.60;63.40;;;;;;10533499;28;20497;-33
2023/06/22 11:40:19;;;;;;;12.23;7.05;;;28.60;58.30;;;;;;10536837;28;20048;-30
2023/06/22 11:45:21;;;;;;;9.05;6.05;;;28.10;61.00;;;;;;10539889;28;20044;-31
2023/06/22 11:50:24;;;;;;;3.13;2.83;;;28.20;60.10;;;;;;10536067;28;20071;-34
2023/06/22 11:55:26;;;;;;;4.30;3.17;;;28.60;59.00;;;;;;10535768;28;20056;-32
2023/06/22 12:00:28;;;;;;;11.77;6.30;;;28.60;58.60;;;;;;10544336;28;20078;-32
2023/06/22 12:05:32;;;;;;;2.60;2.15;;;28.60;59.50;;;;;;10541564;28;20036;-31
2023/06/22 12:10:34;;;;;;;9.55;6.93;;;28.50;59.00;;;;;;10535269;28;20052;-32
2023/06/22 12:15:36;;;;;;;3.42;2.55;;;27.90;63.80;;;;;;10536473;28;20055;-34
2023/06/22 12:20:39;;;;;;;13.43;7.90;;;28.60;60.80;;;;;;10538078;28;20044;-37
2023/06/22 12:25:41;;;;;;;11.90;9.13;;;28.50;58.70;;;;;;10520394;28;20059;-35
2023/06/22 12:30:43;;;;;;;6.20;4.38;;;28.20;60.70;;;;;;10535200;28;20116;-38
2023/06/22 12:35:48;;;;;;;10.80;6.50;;;28.40;60.30;;;;;;10531331;28;20078;-40
2023/06/22 12:40:51;;;;;;;3.75;2.72;;;27.90;60.30;;;;;;10534845;28;20044;-34
2023/06/22 12:45:53;;;;;;;3.03;2.38;;;28.90;58.00;;;;;;10533323;28;20054;-32
2023/06/22 12:50:56;;;;;;;6.60;3.97;;;28.40;59.70;;;;;;10533183;28;20044;-34
2023/06/22 12:55:58;;;;;;;8.77;4.28;;;28.40;59.10;;;;;;10533876;28;20072;-32
2023/06/22 13:01:00;;;;;;;2.90;2.13;;;28.40;59.70;;;;;;10534321;28;20048;-33
2023/06/22 13:06:04;;;;;;;3.50;2.40;;;28.60;59.40;;;;;;10534280;28;20488;-35
2023/06/22 13:11:06;;;;;;;3.13;2.10;;;28.90;58.10;;;;;;10532773;28;20051;-36
2023/06/22 13:16:08;;;;;;;4.50;2.42;;;29.40;56.70;;;;;;10528227;28;20134;-35
2023/06/22 13:21:11;;;;;;;3.38;1.92;;;29.50;56.40;;;;;;10532150;28;20083;-34
2023/06/22 13:26:13;;;;;;;3.67;2.92;;;29.30;56.80;;;;;;10532381;28;20425;-30
2023/06/22 13:31:15;;;;;;;2.38;1.60;;;29.30;56.70;;;;;;10528626;28;20062;-31
2023/06/22 13:36:19;;;;;;;1.90;1.65;;;29.40;56.70;;;;;;10530770;28;20079;-34
2023/06/22 13:41:21;;;;;;;3.70;2.08;;;29.60;56.50;;;;;;10530584;28;20503;-33
2023/06/22 13:46:23;;;;;;;4.18;1.85;;;29.70;56.50;;;;;;10528248;28;20075;-33
2023/06/22 13:51:26;;;;;;;2.95;2.00;;;29.80;56.50;;;;;;10531877;28;20044;-34
2023/06/22 13:56:28;;;;;;;2.13;1.83;;;29.70;56.70;;;;;;10531354;28;20080;-32
2023/06/22 14:01:30;;;;;;;1.92;1.73;;;29.70;56.70;;;;;;10527038;28;20480;-31
2023/06/22 14:06:33;;;;;;;1.67;1.58;;;29.60;57.00;;;;;;10524667;28;20053;-31
2023/06/22 14:11:35;;;;;;;2.45;1.75;;;29.70;56.90;;;;;;10530569;28;20075;-32
2023/06/22 14:16:37;;;;;;;2.35;1.90;;;29.60;57.10;;;;;;10530779;28;20054;-32
2023/06/22 14:21:41;;;;;;;2.10;1.85;;;29.00;58.50;;;;;;10529199;28;20528;-31
2023/06/22 14:26:42;;;;;;;3.10;1.67;;;29.30;57.60;;;;;;10530352;28;20075;-32
2023/06/22 14:31:46;;;;;;;6.82;3.00;;;29.50;57.10;;;;;;10528883;28;20139;-33
2023/06/22 14:36:50;;;;;;;1.85;1.50;;;29.50;57.20;;;;;;10529789;28;20138;-32
2023/06/22 14:41:51;;;;;;;7.28;4.60;;;29.50;56.70;;;;;;10527815;28;20072;-34
2023/06/22 14:46:53;;;;;;;4.25;1.92;;;29.30;57.10;;;;;;10527545;28;20127;-32
2023/06/22 14:51:56;;;;;;;3.83;2.00;;;29.50;56.70;;;;;;10524634;28;20594;-31
2023/06/22 14:56:58;;;;;;;3.03;2.03;;;29.50;56.40;;;;;;10534812;28;20058;-33
2023/06/22 15:02:00;;;;;;;3.17;1.95;;;29.40;56.80;;;;;;10529172;28;20071;-34
2023/06/22 15:07:03;;;;;;;3.05;2.20;;;29.20;57.20;;;;;;10521996;28;20610;-32
2023/06/22 15:12:11;;;;;;;2.95;1.77;;;29.20;57.10;;;;;;10524913;28;20083;-33
2023/06/22 15:17:14;;;;;;;2.55;1.70;;;29.10;57.40;;;;;;10520828;28;20424;-29
2023/06/22 15:22:19;;;;;;;4.38;3.50;;;29.00;58.20;;;;;;10526925;28;20052;-34
2023/06/22 15:27:21;;;;;;;3.85;1.80;;;29.00;57.80;;;;;;10526365;28;20048;-31
2023/06/22 15:32:23;;;;;;;4.03;1.98;;;29.20;57.30;;;;;;10525724;28;20064;-32
2023/06/22 15:37:26;;;;;;;2.90;1.90;;;29.10;58.00;;;;;;10526167;28;20164;-31
2023/06/22 15:42:28;;;;;;;4.20;1.90;;;29.00;58.40;;;;;;10525927;28;20143;-35
2023/06/22 15:47:29;;;;;;;3.35;2.00;;;29.30;58.00;;;;;;10524148;28;20520;-31
2023/06/22 15:52:33;;;;;;;2.97;1.80;;;29.10;57.90;;;;;;10528504;28;20067;-30
2023/06/22 15:57:35;;;;;;;3.78;2.10;;;28.90;58.50;;;;;;10526153;28;20563;-37
2023/06/22 16:02:37;;;;;;;2.65;1.60;;;28.90;58.40;;;;;;10527782;28;20058;-31
2023/06/22 16:07:40;;;;;;;3.08;1.70;;;29.30;57.10;;;;;;10531050;28;20048;-31
2023/06/22 16:12:43;;;;;;;4.57;2.10;;;29.30;56.80;;;;;;10533105;28;20052;-35
2023/06/22 16:17:45;;;;;;;5.18;1.73;;;29.50;56.50;;;;;;10524825;28;20135;-34
2023/06/22 16:22:49;;;;;;;5.00;1.70;;;29.50;56.80;;;;;;10531243;28;20079;-36
2023/06/22 16:27:51;;;;;;;3.65;1.77;;;29.40;57.20;;;;;;10531748;28;20040;-32
2023/06/22 16:32:54;;;;;;;5.90;1.95;;;29.50;57.30;;;;;;10531039;28;20101;-36
2023/06/22 16:37:57;;;;;;;3.17;1.92;;;29.00;58.20;;;;;;10528895;28;20543;-29
2023/06/22 16:42:59;;;;;;;4.43;2.08;;;28.90;57.20;;;;;;10532210;28;20413;-32
2023/06/22 16:48:01;;;;;;;2.47;1.48;;;28.30;59.80;;;;;;10532490;28;20076;-32
2023/06/22 16:53:04;;;;;;;3.55;1.67;;;29.20;57.50;;;;;;10530715;28;20132;-37
2023/06/22 16:58:07;;;;;;;7.15;2.10;;;29.00;57.70;;;;;;10528768;28;20056;-31
2023/06/22 17:03:13;;;;;;;4.82;1.80;;;29.10;56.80;;;;;;10526703;28;20097;-31
2023/06/22 17:08:17;;;;;;;3.05;1.63;;;29.10;57.00;;;;;;10532205;28;20129;-37
2023/06/22 17:13:19;;;;;;;3.95;1.33;;;28.80;58.00;;;;;;10534986;28;20520;-33
2023/06/22 17:18:23;;;;;;;2.28;1.80;;;28.60;58.70;;;;;;10535071;28;20048;-34
2023/06/22 17:23:28;;;;;;;3.30;1.63;;;28.70;58.70;;;;;;10531404;28;20040;-32
2023/06/22 17:28:48;;;;;;;2.15;1.73;;;28.70;58.90;;;;;;10535165;28;20043;-33
2023/06/22 17:33:50;;;;;;;2.95;1.58;;;28.60;59.50;;;;;;10530111;28;20052;-32
2023/06/22 17:39:00;;;;;;;2.38;1.27;;;29.00;58.50;;;;;;10526162;28;20059;-34
2023/06/22 17:44:05;;;;;;;2.67;1.75;;;29.10;58.40;;;;;;10526427;28;20102;-33
2023/06/22 17:49:11;;;;;;;4.32;1.60;;;28.70;59.60;;;;;;10529436;28;20048;-32
2023/06/22 17:54:14;;;;;;;3.10;1.45;;;28.40;59.80;;;;;;10535588;28;20055;-33
2023/06/22 17:59:16;;;;;;;2.38;1.48;;;29.00;58.20;;;;;;10531676;28;20112;-32
2023/06/22 18:04:19;;;;;;;2.50;1.50;;;28.80;58.40;;;;;;10526120;28;20066;-32
2023/06/22 18:09:23;;;;;;;3.55;1.55;;;28.70;58.70;;;;;;10532444;28;20409;-32
2023/06/22 18:14:29;;;;;;;3.10;1.45;;;29.10;57.60;;;;;;10532966;28;20063;-31
2023/06/22 18:19:37;;;;;;;4.93;1.50;;;28.60;58.30;;;;;;10529561;28;20044;-34
2023/06/22 18:24:41;;;;;;;3.65;1.42;;;28.80;57.90;;;;;;10525710;28;20075;-31
2023/06/22 18:29:44;;;;;;;2.78;1.60;;;29.10;57.40;;;;;;10519908;28;20472;-33
2023/06/22 18:34:46;;;;;;;3.83;1.38;;;28.60;58.00;;;;;;10529113;28;20625;-31
2023/06/22 18:39:54;;;;;;;2.38;1.42;;;28.20;57.00;;;;;;10534011;28;20048;-35
2023/06/22 18:44:56;;;;;;;6.78;2.28;;;28.80;57.70;;;;;;10512550;28;20139;-33
2023/06/22 18:50:06;;;;;;;8.52;3.08;;;28.90;57.60;;;;;;10524567;28;20079;-31
2023/06/22 18:55:12;;;;;;;6.68;3.08;;;28.80;57.00;;;;;;10533445;28;20070;-32
2023/06/22 19:00:16;;;;;;;7.30;3.38;;;28.60;57.70;;;;;;10527682;28;20051;-34
2023/06/22 19:05:19;;;;;;;5.03;3.20;;;28.70;57.40;;;;;;10525709;28;20503;-31
2023/06/22 19:10:24;;;;;;;10.20;3.85;;;28.60;58.50;;;;;;10527836;28;20044;-36
2023/06/22 19:15:32;;;;;;;5.63;2.92;;;28.60;57.80;;;;;;10529959;28;20561;-35
2023/06/22 19:20:34;;;;;;;8.13;3.60;;;28.90;57.00;;;;;;10528690;28;20047;-33
2023/06/22 19:25:45;;;;;;;5.63;3.17;;;28.80;57.10;;;;;;10528453;28;20036;-31
2023/06/22 19:30:48;;;;;;;4.57;2.78;;;29.00;56.80;;;;;;10529889;28;20083;-33
2023/06/22 19:35:50;;;;;;;4.57;2.28;;;28.70;56.70;;;;;;10527910;28;20097;-33
2023/06/22 19:40:54;;;;;;;7.32;2.92;;;28.80;56.80;;;;;;10530953;28;20083;-33
2023/06/22 19:45:57;;;;;;;5.93;2.20;;;28.50;57.70;;;;;;10522359;28;20515;-33
2023/06/22 19:51:04;;;;;;;3.85;1.92;;;28.30;57.70;;;;;;10525280;28;20072;-34
2023/06/22 19:56:07;;;;;;;6.70;1.90;;;28.30;57.60;;;;;;10529351;28;20060;-33
2023/06/22 20:01:10;;;;;;;7.03;2.40;;;28.60;57.20;;;;;;10540171;28;20082;-32
2023/06/22 20:06:14;;;;;;;4.25;1.77;;;27.90;57.40;;;;;;10535980;28;20117;-32
2023/06/22 20:11:28;;;;;;;5.03;2.22;;;28.10;58.30;;;;;;10542331;28;20048;-32
2023/06/22 20:16:31;;;;;;;4.18;1.67;;;27.80;58.10;;;;;;10534992;28;20040;-31
2023/06/22 20:21:33;;;;;;;3.25;1.70;;;28.30;57.30;;;;;;10536788;28;20106;-32
2023/06/22 20:26:40;;;;;;;2.92;1.85;;;27.90;57.10;;;;;;10535748;28;20105;-34
2023/06/22 20:31:42;;;;;;;3.30;1.40;;;28.20;58.30;;;;;;10533424;28;20060;-33
2023/06/22 20:36:44;;;;;;;8.35;2.38;;;28.10;57.50;;;;;;10533213;28;20135;-34
2023/06/22 20:41:47;;;;;;;2.55;1.17;;;27.70;58.10;;;;;;10534668;28;20060;-33
2023/06/22 20:46:49;;;;;;;1.77;1.20;;;28.10;57.30;;;;;;10534558;28;20041;-31
2023/06/22 20:51:51;;;;;;;5.05;1.85;;;27.80;58.00;;;;;;10525690;28;20086;-30
2023/06/22 20:56:54;;;;;;;3.30;1.02;;;27.60;58.10;;;;;;10531568;28;20117;-28
2023/06/22 21:01:56;;;;;;;2.08;1.13;;;27.80;58.10;;;;;;10535507;28;20135;-31
2023/06/22 21:06:58;;;;;;;5.78;1.27;;;27.40;58.50;;;;;;10531978;28;20044;-32
2023/06/22 21:12:01;;;;;;;2.67;1.20;;;27.20;57.20;;;;;;10536747;28;20488;-32
2023/06/22 21:17:03;;;;;;;3.67;1.60;;;27.30;58.50;;;;;;10540245;28;20056;-32
2023/06/22 21:22:06;;;;;;;2.65;1.17;;;27.60;57.00;;;;;;10533589;28;20132;-34
2023/06/22 21:27:09;;;;;;;2.50;1.10;;;27.80;57.10;;;;;;10534010;28;20161;-33
2023/06/22 21:32:11;;;;;;;4.28;1.13;;;27.60;57.50;;;;;;10531252;28;20042;-33
2023/06/22 21:37:13;;;;;;;3.10;1.00;;;27.40;57.70;;;;;;10532307;28;20571;-31
2023/06/22 21:42:18;;;;;;;2.33;1.52;;;27.20;58.50;;;;;;10531107;28;20063;-32
2023/06/22 21:47:19;;;;;;;2.15;1.17;;;27.00;58.50;;;;;;10509142;28;20105;-34
2023/06/22 21:52:22;;;;;;;2.83;1.33;;;27.70;57.30;;;;;;10523826;28;20074;-32
2023/06/22 21:57:26;;;;;;;3.53;1.42;;;27.60;57.00;;;;;;10524965;28;20048;-34
2023/06/22 22:02:28;;;;;;;2.35;0.95;;;27.70;56.80;;;;;;10528776;28;20055;-34
2023/06/22 22:07:31;;;;;;;2.83;1.10;;;27.60;57.00;;;;;;10529381;28;20110;-33
2023/06/22 22:12:34;;;;;;;1.60;1.23;;;27.50;57.00;;;;;;10532250;28;20052;-30
2023/06/22 22:17:36;;;;;;;3.83;1.23;;;27.50;57.10;;;;;;10529695;28;20054;-30
2023/06/22 22:22:38;;;;;;;2.20;1.30;;;27.60;56.60;;;;;;10529628;28;20082;-31
2023/06/22 22:27:41;;;;;;;2.45;1.17;;;27.40;57.40;;;;;;10538751;28;20067;-34
2023/06/22 22:32:44;;;;;;;1.70;1.20;;;27.40;57.20;;;;;;10535366;28;20113;-32
2023/06/22 22:37:46;;;;;;;2.85;1.38;;;27.40;56.90;;;;;;10533286;28;20047;-32
2023/06/22 22:42:49;;;;;;;3.08;1.50;;;27.40;57.00;;;;;;10532222;28;20056;-32
2023/06/22 22:47:51;;;;;;;2.22;1.38;;;27.50;57.10;;;;;;10526385;28;20074;-32
2023/06/22 22:52:53;;;;;;;2.75;1.30;;;27.50;56.90;;;;;;10532212;28;20131;-34
2023/06/22 22:57:56;;;;;;;3.00;1.98;;;27.40;57.10;;;;;;10531263;28;20048;-33
2023/06/22 23:03:01;;;;;;;2.42;1.20;;;26.90;57.50;;;;;;10529740;28;20048;-31
2023/06/22 23:08:04;;;;;;;1.15;1.05;;;27.30;57.10;;;;;;10527895;28;20451;-31
2023/06/22 23:13:07;;;;;;;2.38;1.58;;;27.00;58.00;;;;;;10527574;28;20047;-32
2023/06/22 23:18:09;;;;;;;2.05;1.10;;;27.20;57.20;;;;;;10530199;28;20093;-31
2023/06/22 23:23:11;;;;;;;1.77;1.45;;;27.20;57.30;;;;;;10528123;28;20039;-33
2023/06/22 23:28:16;;;;;;;1.65;1.25;;;26.90;57.80;;;;;;10530294;28;20536;-35
2023/06/22 23:33:18;;;;;;;2.38;1.50;;;27.10;57.20;;;;;;10535129;28;20708;-34
2023/06/22 23:38:20;;;;;;;2.05;1.50;;;27.00;57.30;;;;;;10542803;28;20150;-37
2023/06/22 23:43:25;;;;;;;3.35;2.20;;;26.60;58.10;;;;;;10542396;28;20076;-37
2023/06/22 23:48:26;;;;;;;3.38;2.10;;;26.00;59.80;;;;;;10538643;28;20133;-36
2023/06/22 23:53:28;;;;;;;2.95;1.55;;;26.50;59.10;;;;;;10538590;28;20075;-36
2023/06/22 23:58:32;;;;;;;2.88;1.50;;;26.40;59.40;;;;;;10538176;28;20052;-38
